createdAt,value
2018-12-05T00:00:15.332Z,123.30
2018-12-05T00:02:44.345Z,119.42
2018-12-05T00:05:13.405Z,128.20
2018-12-05T00:07:42.446Z,121.07
2018-12-05T00:10:11.605Z,124.95
2018-12-05T00:12:40.622Z,117.42
2018-12-05T00:15:09.816Z,125.55
2018-12-05T00:17:38.835Z,116.97
2018-12-05T00:20:08.035Z,117.67
2018-12-05T00:22:37.014Z,117.53
2018-12-05T00:25:06.316Z,113.45
2018-12-05T00:27:35.415Z,125.95
2018-12-05T00:30:04.793Z,110.45
2018-12-05T00:32:33.826Z,113.88
2018-12-05T00:35:02.803Z,111.37
2018-12-05T00:37:31.923Z,114.35
2018-12-05T00:40:01.191Z,112.22
2018-12-05T00:42:30.212Z,112.85
2018-12-05T00:44:59.215Z,108.20
2018-12-05T00:47:28.317Z,110.28
2018-12-05T00:49:57.468Z,107.80
2018-12-05T00:52:26.504Z,112.32
2018-12-05T00:54:55.691Z,110.97
2018-12-05T00:57:24.815Z,105.97
2018-12-05T00:59:53.797Z,110.32
2018-12-05T01:02:23.039Z,104.60
2018-12-05T01:04:52.028Z,104.50
2018-12-05T01:07:21.211Z,107.45
2018-12-05T01:09:50.311Z,105.72
2018-12-05T01:12:19.305Z,108.05
2018-12-05T01:14:48.379Z,105.17
2018-12-05T01:17:17.475Z,107.12
2018-12-05T01:19:46.422Z,107.90
2018-12-05T01:22:15.459Z,103.85
2018-12-05T01:24:44.537Z,102.07
2018-12-05T01:27:13.729Z,101.95
2018-12-05T01:29:42.884Z,102.10
2018-12-05T01:32:11.814Z,99.42
2018-12-05T01:34:40.925Z,104.20
2018-12-05T01:37:09.908Z,98.78
2018-12-05T01:39:38.918Z,100.87
2018-12-05T01:42:08.026Z,101.07
2018-12-05T01:44:37.019Z,100.97
2018-12-05T01:47:06.124Z,101.10
2018-12-05T01:49:35.200Z,101.10
2018-12-05T01:52:04.310Z,100.60
2018-12-05T01:54:33.295Z,96.10
2018-12-05T01:57:02.291Z,98.75
2018-12-05T01:59:31.491Z,100.12
2018-12-05T02:02:00.565Z,99.83
2018-12-05T02:04:29.533Z,100.42
2018-12-05T02:06:58.576Z,99.35
2018-12-05T02:09:27.559Z,101.70
2018-12-05T02:11:56.640Z,99.42
2018-12-05T02:14:25.657Z,97.30
2018-12-05T02:16:54.792Z,93.07
2018-12-05T02:19:23.849Z,90.22
2018-12-05T02:21:52.928Z,98.47
2018-12-05T02:24:22.140Z,96.70
2018-12-05T02:26:51.293Z,102.45
2018-12-05T02:29:20.491Z,103.12
2018-12-05T02:31:49.532Z,98.40
2018-12-05T02:34:18.641Z,99.07
2018-12-05T02:36:47.612Z,96.32
2018-12-05T02:39:16.613Z,94.15
2018-12-05T02:41:45.708Z,92.67
2018-12-05T02:44:14.804Z,95.90
2018-12-05T02:46:43.904Z,91.57
2018-12-05T02:49:12.995Z,89.60
2018-12-05T02:51:42.064Z,97.62
2018-12-05T02:54:11.180Z,95.65
2018-12-05T02:56:40.287Z,99.67
2018-12-05T02:59:09.396Z,94.45
2018-12-05T03:01:38.369Z,93.25
2018-12-05T03:04:07.372Z,95.30
2018-12-05T03:06:36.499Z,88.25
2018-12-05T03:09:08.037Z,93.62
2018-12-05T03:11:37.028Z,90.17
2018-12-05T03:14:06.107Z,93.10
2018-12-05T03:16:35.229Z,91.97
2018-12-05T03:19:04.191Z,87.33
2018-12-05T03:21:33.261Z,90.83
2018-12-05T03:24:02.204Z,89.87
2018-12-05T03:26:31.172Z,89.55
2018-12-05T03:29:00.269Z,89.05
2018-12-05T03:31:29.284Z,84.55
2018-12-05T03:33:58.372Z,87.05
2018-12-05T03:36:27.464Z,85.77
2018-12-05T03:38:56.549Z,87.42
2018-12-05T03:41:25.590Z,86.95
2018-12-05T03:43:54.588Z,86.15
2018-12-05T03:46:23.659Z,83.25
2018-12-05T03:48:52.754Z,89.10
2018-12-05T03:51:21.874Z,84.42
2018-12-05T03:53:50.848Z,93.78
2018-12-05T03:56:19.872Z,88.33
2018-12-05T03:58:49.043Z,84.87
2018-12-05T04:01:18.154Z,82.67
2018-12-05T04:03:47.080Z,81.37
2018-12-05T04:06:16.105Z,86.10
2018-12-05T04:08:45.195Z,85.05
2018-12-05T04:11:14.339Z,83.20
2018-12-05T04:13:43.406Z,76.15
2018-12-05T04:16:12.399Z,81.67
2018-12-05T04:18:41.528Z,87.92
2018-12-05T04:21:10.597Z,79.55
2018-12-05T04:23:39.713Z,79.00
2018-12-05T04:26:08.792Z,79.65
2018-12-05T04:28:37.799Z,82.15
2018-12-05T04:31:06.775Z,81.70
2018-12-05T04:33:35.884Z,83.90
2018-12-05T04:36:04.748Z,80.57
2018-12-05T04:38:33.853Z,77.72
2018-12-05T04:41:02.839Z,80.85
2018-12-05T04:43:31.840Z,80.62
2018-12-05T04:46:00.932Z,85.15
2018-12-05T04:48:30.079Z,83.03
2018-12-05T04:50:59.142Z,79.90
2018-12-05T04:53:28.146Z,78.85
2018-12-05T04:55:57.242Z,80.40
2018-12-05T04:58:26.331Z,78.02
2018-12-05T05:00:55.487Z,76.72
2018-12-05T05:03:24.551Z,80.67
2018-12-05T05:05:53.522Z,80.55
2018-12-05T05:08:22.727Z,82.17
2018-12-05T05:10:51.779Z,78.33
2018-12-05T05:13:20.847Z,75.83
2018-12-05T05:15:49.779Z,79.20
2018-12-05T05:18:18.784Z,76.37
2018-12-05T05:20:48.040Z,78.10
2018-12-05T05:23:17.003Z,76.57
2018-12-05T05:25:46.269Z,78.00
2018-12-05T05:28:15.280Z,78.95
2018-12-05T05:30:44.364Z,75.85
2018-12-05T05:33:13.368Z,81.12
2018-12-05T05:35:42.365Z,78.55
2018-12-05T05:38:11.348Z,78.85
2018-12-05T05:40:40.352Z,76.07
2018-12-05T05:43:09.376Z,77.60
2018-12-05T05:45:38.457Z,73.67
2018-12-05T05:48:07.550Z,78.87
2018-12-05T05:50:36.739Z,78.85
2018-12-05T05:53:05.850Z,75.75
2018-12-05T05:55:34.830Z,73.12
2018-12-05T05:58:03.832Z,71.70
2018-12-05T06:00:32.880Z,74.82
2018-12-05T06:03:01.819Z,80.17
2018-12-05T06:05:30.788Z,81.42
2018-12-05T06:07:59.839Z,74.03
2018-12-05T06:10:28.896Z,74.65
2018-12-05T06:12:57.976Z,78.28
2018-12-05T06:15:27.281Z,73.90
2018-12-05T06:17:56.237Z,73.42
2018-12-05T06:20:25.276Z,80.25
2018-12-05T06:22:54.259Z,81.00
2018-12-05T06:25:23.275Z,75.37
2018-12-05T06:27:52.164Z,69.85
2018-12-05T06:30:21.273Z,62.53
2018-12-05T06:32:50.252Z,57.83
2018-12-05T06:35:19.365Z,45.30
2018-12-05T06:37:48.362Z,38.90
2018-12-05T06:40:17.435Z,61.88
2018-12-05T06:42:46.525Z,56.53
2018-12-05T06:45:15.627Z,55.80
2018-12-05T06:47:44.620Z,34.38
2018-12-05T06:50:13.625Z,32.67
2018-12-05T06:52:42.620Z,42.78
2018-12-05T06:55:11.785Z,47.95
2018-12-05T06:57:41.012Z,43.13
2018-12-05T07:00:10.113Z,45.95
2018-12-05T07:02:39.214Z,41.68
2018-12-05T07:05:08.200Z,43.35
2018-12-05T07:07:37.321Z,42.70
2018-12-05T07:10:06.780Z,41.75
2018-12-05T07:12:35.895Z,43.35
2018-12-05T07:15:04.902Z,38.83
2018-12-05T07:17:33.897Z,41.35
2018-12-05T07:20:02.882Z,40.98
2018-12-05T07:22:31.890Z,39.80
2018-12-05T07:25:00.909Z,41.40
2018-12-05T07:27:30.032Z,44.20
2018-12-05T07:29:59.905Z,40.25
2018-12-05T07:32:29.055Z,38.83
2018-12-05T07:34:58.112Z,39.20
2018-12-05T07:37:27.074Z,36.38
2018-12-05T07:39:56.181Z,32.60
2018-12-05T07:42:25.269Z,37.23
2018-12-05T07:44:54.369Z,33.25
2018-12-05T07:47:23.226Z,32.67
2018-12-05T07:49:52.247Z,29.63
2018-12-05T07:52:21.342Z,34.20
2018-12-05T07:54:50.472Z,33.88
2018-12-05T07:57:19.436Z,33.70
2018-12-05T07:59:48.531Z,29.02
2018-12-05T08:02:17.577Z,34.05
2018-12-05T08:04:46.723Z,29.98
2018-12-05T08:07:15.923Z,38.70
2018-12-05T08:09:45.004Z,29.27
2018-12-05T08:12:14.107Z,32.85
2018-12-05T08:14:43.406Z,29.63
2018-12-05T08:17:12.489Z,26.42
2018-12-05T08:19:41.638Z,22.70
2018-12-05T08:22:10.808Z,25.17
2018-12-05T08:24:39.956Z,16.35
2018-12-05T08:27:09.462Z,18.48
2018-12-05T08:29:38.589Z,17.23
2018-12-05T08:32:07.660Z,26.80
2018-12-05T08:34:36.852Z,20.65
2018-12-05T08:37:05.988Z,21.75
2018-12-05T08:39:35.214Z,20.52
2018-12-05T08:42:04.318Z,14.87
2018-12-05T08:44:33.303Z,20.17
2018-12-05T08:47:02.615Z,19.57
2018-12-05T08:49:31.739Z,33.85
2018-12-05T08:52:00.797Z,23.75
2018-12-05T08:54:29.886Z,19.57
2018-12-05T08:56:58.936Z,18.10
2018-12-05T08:59:27.951Z,18.00
2018-12-05T09:01:57.053Z,20.52
2018-12-05T09:04:26.064Z,16.32
2018-12-05T09:06:55.169Z,16.82
2018-12-05T09:09:24.146Z,16.05
2018-12-05T09:11:53.494Z,15.53
2018-12-05T09:14:28.627Z,18.98
2018-12-05T09:16:53.491Z,16.77
2018-12-05T09:19:22.490Z,17.12
2018-12-05T09:21:51.471Z,18.52
2018-12-05T09:24:20.472Z,16.90
2018-12-05T09:26:49.449Z,17.37
2018-12-05T09:29:18.499Z,17.80
2018-12-05T09:31:47.456Z,15.85
2018-12-05T09:34:16.545Z,19.67
2018-12-05T09:36:45.646Z,13.65
2018-12-05T09:39:14.629Z,16.97
2018-12-05T09:41:43.607Z,14.20
2018-12-05T09:44:12.640Z,17.23
2018-12-05T09:46:41.623Z,19.87
2018-12-05T09:49:10.823Z,18.20
2018-12-05T09:51:39.943Z,20.37
2018-12-05T09:54:08.915Z,15.85
2018-12-05T09:56:38.027Z,18.12
2018-12-05T09:59:06.830Z,15.75
2018-12-05T10:01:35.867Z,20.02
2018-12-05T10:04:05.095Z,16.12
2018-12-05T10:06:34.289Z,15.15
2018-12-05T10:09:04.354Z,15.20
2018-12-05T10:11:33.409Z,14.70
2018-12-05T10:14:02.730Z,14.38
2018-12-05T10:16:31.996Z,18.07
2018-12-05T10:19:01.112Z,18.02
2018-12-05T10:21:30.380Z,13.20
2018-12-05T10:23:59.556Z,16.55
2018-12-05T10:26:28.595Z,14.35
2018-12-05T10:28:57.812Z,12.70
2018-12-05T10:31:27.036Z,13.10
2018-12-05T10:33:56.201Z,15.38
2018-12-05T10:36:25.286Z,14.93
2018-12-05T10:38:54.272Z,13.93
2018-12-05T10:41:23.473Z,14.23
2018-12-05T10:43:52.579Z,13.65
2018-12-05T10:46:21.661Z,14.18
2018-12-05T10:48:50.771Z,22.30
2018-12-05T10:51:20.024Z,16.07
2018-12-05T10:53:49.062Z,32.93
2018-12-05T10:56:18.093Z,30.52
2018-12-05T10:58:47.144Z,38.17
2018-12-05T11:01:21.090Z,31.25
2018-12-05T11:03:50.117Z,34.10
2018-12-05T11:06:24.156Z,39.90
2018-12-05T11:08:58.248Z,39.78
2018-12-05T11:11:32.472Z,38.15
2018-12-05T11:14:06.512Z,39.20
2018-12-05T11:16:40.449Z,50.08
2018-12-05T11:19:14.640Z,44.93
2018-12-05T11:21:49.779Z,43.95
2018-12-05T11:24:24.113Z,52.05
2018-12-05T11:26:53.270Z,51.23
2018-12-05T11:29:22.280Z,56.08
2018-12-05T11:31:51.272Z,61.18
2018-12-05T11:34:20.412Z,63.73
2018-12-05T11:36:50.300Z,57.38
2018-12-05T11:39:19.413Z,63.60
2018-12-05T11:41:48.500Z,71.72
2018-12-05T11:44:17.502Z,81.55
2018-12-05T11:46:46.552Z,76.45
2018-12-05T11:49:15.547Z,77.03
2018-12-05T11:51:44.657Z,75.17
2018-12-05T11:54:13.760Z,73.45
2018-12-05T11:56:42.904Z,79.30
2018-12-05T11:59:12.009Z,82.10
2018-12-05T12:01:41.129Z,82.27
2018-12-05T12:04:10.262Z,80.85
2018-12-05T12:06:39.236Z,86.53
2018-12-05T12:09:09.660Z,90.47
2018-12-05T12:11:38.859Z,102.12
2018-12-05T12:14:08.004Z,106.40
2018-12-05T12:16:37.077Z,104.70
2018-12-05T12:19:06.068Z,95.62
2018-12-05T12:21:35.073Z,98.60
2018-12-05T12:24:04.128Z,103.97
2018-12-05T12:26:33.506Z,107.12
2018-12-05T12:29:02.661Z,95.53
2018-12-05T12:31:31.698Z,109.15
2018-12-05T12:34:00.883Z,103.00
2018-12-05T12:36:29.952Z,110.30
2018-12-05T12:38:59.158Z,106.55
2018-12-05T12:41:28.564Z,112.45
2018-12-05T12:43:57.900Z,106.55
2018-12-05T12:46:27.189Z,107.67
2018-12-05T12:48:56.324Z,107.65
2018-12-05T12:51:26.483Z,119.72
2018-12-05T12:53:55.601Z,112.55
2018-12-05T12:56:24.792Z,112.30
2018-12-05T12:58:54.796Z,113.32
2018-12-05T13:01:24.349Z,113.92
2018-12-05T13:03:53.477Z,116.82
2018-12-05T13:06:22.668Z,114.12
2018-12-05T13:08:52.621Z,165.77
2018-12-05T13:11:21.621Z,134.40
2018-12-05T13:13:50.536Z,119.72
2018-12-05T13:16:20.784Z,141.95
2018-12-05T13:18:49.957Z,126.97
2018-12-05T13:21:18.889Z,146.93
2018-12-05T13:23:47.992Z,162.82
2018-12-05T13:26:17.007Z,141.55
2018-12-05T13:28:46.063Z,127.72
2018-12-05T13:31:15.151Z,141.70
2018-12-05T13:33:44.235Z,148.28
2018-12-05T13:36:13.401Z,168.50
2018-12-05T13:38:42.622Z,193.43
2018-12-05T13:41:11.779Z,147.20
2018-12-05T13:43:40.830Z,126.35
2018-12-05T13:46:09.980Z,116.15
2018-12-05T13:48:38.971Z,150.47
2018-12-05T13:51:08.920Z,187.85
2018-12-05T13:53:39.069Z,195.10
2018-12-05T13:56:08.245Z,189.30
2018-12-05T13:58:37.215Z,174.77
2018-12-05T14:01:06.396Z,181.72
2018-12-05T14:03:35.635Z,128.60
2018-12-05T14:06:04.783Z,190.25
2018-12-05T14:08:33.804Z,187.62
2018-12-05T14:11:03.889Z,189.67
2018-12-05T14:13:33.209Z,174.18
2018-12-05T14:16:02.588Z,143.80
2018-12-05T14:18:31.628Z,125.55
2018-12-05T14:21:00.677Z,156.32
2018-12-05T14:23:29.699Z,163.35
2018-12-05T14:25:58.856Z,153.87
2018-12-05T14:28:27.879Z,155.87
2018-12-05T14:30:57.029Z,124.25
2018-12-05T14:33:25.854Z,107.80
2018-12-05T14:35:55.566Z,145.90
2018-12-05T14:38:24.995Z,151.82
2018-12-05T14:40:54.289Z,163.45
2018-12-05T14:43:23.576Z,157.70
2018-12-05T14:45:52.578Z,144.00
2018-12-05T14:48:21.652Z,122.47
2018-12-05T14:50:50.767Z,154.05
2018-12-05T14:53:19.997Z,173.20
2018-12-05T14:55:49.088Z,171.62
2018-12-05T14:58:18.117Z,155.18
2018-12-05T15:00:47.271Z,114.42
2018-12-05T15:03:16.392Z,103.90
2018-12-05T15:05:45.647Z,109.35
2018-12-05T15:08:14.827Z,115.82
2018-12-05T15:10:44.067Z,119.28
2018-12-05T15:13:13.179Z,146.47
2018-12-05T15:15:42.261Z,116.35
2018-12-05T15:18:11.368Z,122.02
2018-12-05T15:20:40.555Z,114.80
2018-12-05T15:23:09.964Z,103.20
2018-12-05T15:25:39.060Z,105.63
2018-12-05T15:28:08.239Z,148.13
2018-12-05T15:30:37.440Z,156.82
2018-12-05T15:33:06.604Z,135.68
2018-12-05T15:35:35.625Z,109.97
2018-12-05T15:38:04.645Z,110.32
2018-12-05T15:40:34.666Z,113.10
2018-12-05T15:43:03.813Z,143.82
2018-12-05T15:45:33.215Z,167.57
2018-12-05T15:48:02.451Z,162.50
2018-12-05T15:50:31.574Z,117.87
2018-12-05T15:53:00.552Z,128.05
2018-12-05T15:55:29.848Z,126.97
2018-12-05T15:57:58.951Z,127.42
2018-12-05T16:00:28.218Z,178.62
2018-12-05T16:02:57.452Z,164.75
2018-12-05T16:05:26.544Z,131.72
2018-12-05T16:07:55.686Z,133.43
2018-12-05T16:10:24.740Z,140.18
2018-12-05T16:12:53.732Z,136.50
2018-12-05T16:15:22.772Z,130.43
2018-12-05T16:17:51.960Z,139.03
2018-12-05T16:20:20.987Z,173.17
2018-12-05T16:22:50.107Z,145.97
2018-12-05T16:25:19.818Z,153.20
2018-12-05T16:27:48.932Z,143.07
2018-12-05T16:30:18.125Z,140.65
2018-12-05T16:32:47.354Z,197.30
2018-12-05T16:35:17.383Z,197.95
2018-12-05T16:37:46.397Z,189.43
2018-12-05T16:40:16.660Z,166.50
2018-12-05T16:42:45.412Z,148.65
2018-12-05T16:45:14.448Z,150.30
2018-12-05T16:47:43.655Z,168.17
2018-12-05T16:50:12.944Z,203.67
2018-12-05T16:52:41.934Z,213.75
2018-12-05T16:55:11.032Z,208.02
2018-12-05T16:57:40.225Z,203.75
2018-12-05T17:00:11.046Z,172.30
2018-12-05T17:02:40.262Z,161.18
2018-12-05T17:05:09.463Z,172.68
2018-12-05T17:07:38.449Z,207.03
2018-12-05T17:10:07.864Z,154.90
2018-12-05T17:12:37.140Z,191.18
2018-12-05T17:15:06.205Z,176.57
2018-12-05T17:17:35.392Z,112.83
2018-12-05T17:20:04.336Z,81.40
2018-12-05T17:22:33.436Z,147.35
2018-12-05T17:25:02.481Z,156.20
2018-12-05T17:27:31.452Z,127.53
2018-12-05T17:30:00.639Z,125.15
2018-12-05T17:32:29.641Z,141.80
2018-12-05T17:34:58.751Z,128.10
2018-12-05T17:37:27.861Z,126.33
2018-12-05T17:39:57.084Z,131.25
2018-12-05T17:42:26.285Z,131.87
2018-12-05T17:44:55.355Z,134.32
2018-12-05T17:47:24.415Z,129.27
2018-12-05T17:49:53.706Z,131.82
2018-12-05T17:52:22.907Z,127.47
2018-12-05T17:54:52.013Z,130.15
2018-12-05T17:57:21.112Z,125.25
2018-12-05T17:59:50.126Z,118.15
2018-12-05T18:02:19.084Z,130.82
2018-12-05T18:04:48.077Z,119.95
2018-12-05T18:07:17.074Z,119.97
2018-12-05T18:09:46.164Z,120.35
2018-12-05T18:12:15.204Z,119.13
2018-12-05T18:14:44.256Z,124.55
2018-12-05T18:17:13.352Z,109.67
2018-12-05T18:19:42.376Z,115.08
2018-12-05T18:22:11.436Z,118.00
2018-12-05T18:24:40.600Z,108.78
2018-12-05T18:27:09.664Z,111.62
2018-12-05T18:29:38.843Z,111.12
2018-12-05T18:32:07.943Z,116.55
2018-12-05T18:34:36.945Z,105.97
2018-12-05T18:37:06.096Z,109.63
2018-12-05T18:39:35.152Z,111.72
2018-12-05T18:42:04.133Z,109.45
2018-12-05T18:44:33.112Z,104.55
2018-12-05T18:47:02.100Z,105.22
2018-12-05T18:49:31.198Z,107.97
2018-12-05T18:52:00.137Z,107.03
2018-12-05T18:54:29.204Z,97.17
2018-12-05T18:56:58.195Z,103.20
2018-12-05T18:59:27.220Z,97.85
2018-12-05T19:01:56.726Z,101.05
2018-12-05T19:04:25.844Z,97.47
2018-12-05T19:06:55.020Z,95.67
2018-12-05T19:09:26.943Z,95.47
2018-12-05T19:23:28.729Z,103.72
2018-12-05T19:25:57.864Z,98.67
2018-12-05T19:28:27.093Z,101.70
2018-12-05T19:30:56.115Z,100.40
2018-12-05T19:33:25.280Z,89.47
2018-12-05T19:35:54.616Z,100.67
2018-12-05T19:38:23.585Z,92.27
2018-12-05T19:40:52.660Z,94.35
2018-12-05T19:43:21.785Z,94.28
2018-12-05T19:45:51.197Z,90.85
2018-12-05T19:48:21.967Z,91.53
2018-12-05T19:50:50.939Z,85.32
2018-12-05T19:53:19.871Z,90.10
2018-12-05T19:55:49.004Z,81.45
2018-12-05T19:58:18.135Z,82.62
2018-12-05T20:00:47.456Z,83.15
2018-12-05T20:03:16.522Z,78.07
2018-12-05T20:05:45.748Z,76.72
2018-12-05T20:08:14.918Z,74.97
2018-12-05T20:10:44.117Z,76.80
2018-12-05T20:13:13.205Z,77.35
2018-12-05T20:15:42.305Z,76.50
2018-12-05T20:18:11.545Z,75.85
2018-12-05T20:20:40.792Z,72.22
2018-12-05T20:23:09.968Z,76.02
2018-12-05T20:25:39.180Z,71.90
2018-12-05T20:28:08.365Z,70.60
2018-12-05T20:30:37.484Z,71.65
2018-12-05T20:33:06.672Z,71.22
2018-12-05T20:35:36.026Z,71.00
2018-12-05T20:38:05.145Z,71.75
2018-12-05T20:40:34.848Z,69.70
2018-12-05T20:43:03.979Z,66.17
2018-12-05T20:45:33.084Z,70.67
2018-12-05T20:48:02.168Z,62.43
2018-12-05T20:50:31.273Z,64.45
2018-12-05T20:53:00.366Z,68.62
2018-12-05T20:55:29.467Z,67.58
2018-12-05T20:57:58.489Z,71.87
2018-12-05T21:00:27.548Z,66.80
2018-12-05T21:02:56.543Z,63.92
2018-12-05T21:05:25.531Z,65.62
2018-12-05T21:07:54.608Z,65.25
2018-12-05T21:10:23.641Z,61.73
2018-12-05T21:12:52.608Z,63.80
2018-12-05T21:15:21.755Z,57.93
2018-12-05T21:17:50.743Z,65.72
2018-12-05T21:20:19.708Z,54.60
2018-12-05T21:22:48.707Z,54.50
2018-12-05T21:25:17.708Z,55.48
2018-12-05T21:27:46.900Z,53.87
2018-12-05T21:30:16.000Z,56.23
2018-12-05T21:32:44.942Z,56.63
2018-12-05T21:35:13.923Z,56.40
2018-12-05T21:37:42.934Z,55.85
2018-12-05T21:40:11.923Z,56.50
2018-12-05T21:42:41.197Z,54.67
2018-12-05T21:45:10.171Z,54.27
2018-12-05T21:47:39.240Z,51.37
2018-12-05T21:50:08.336Z,55.33
2018-12-05T21:52:37.479Z,53.15
2018-12-05T21:55:06.996Z,52.98
2018-12-05T21:57:35.968Z,49.98
2018-12-05T22:00:06.412Z,49.77
2018-12-05T22:02:35.353Z,47.30
2018-12-05T22:05:04.443Z,42.73
2018-12-05T22:07:33.449Z,50.25
2018-12-05T22:10:02.559Z,47.55
2018-12-05T22:12:31.652Z,46.98
2018-12-05T22:15:00.745Z,45.08
2018-12-05T22:17:29.737Z,45.38
2018-12-05T22:19:58.840Z,49.08
2018-12-05T22:22:27.836Z,43.50
2018-12-05T22:24:57.131Z,43.87
2018-12-05T22:27:26.239Z,42.53
2018-12-05T22:29:55.231Z,42.80
2018-12-05T22:32:24.321Z,42.45
2018-12-05T22:34:53.438Z,41.92
2018-12-05T22:37:22.616Z,42.58
2018-12-05T22:39:51.720Z,40.95
2018-12-05T22:42:20.666Z,42.33
2018-12-05T22:44:49.760Z,45.90
2018-12-05T22:47:18.795Z,40.25
2018-12-05T22:49:47.876Z,40.25
2018-12-05T22:52:16.972Z,45.05
2018-12-05T22:54:45.985Z,40.55
2018-12-05T22:57:15.983Z,39.80
2018-12-05T22:59:45.100Z,36.30
2018-12-05T23:02:14.416Z,37.83
2018-12-05T23:04:43.502Z,36.42
2018-12-05T23:07:12.519Z,38.23
2018-12-05T23:09:41.488Z,36.25
2018-12-05T23:12:10.547Z,35.88
2018-12-05T23:14:39.564Z,34.45
2018-12-05T23:17:08.652Z,39.05
2018-12-05T23:19:37.672Z,37.75
2018-12-05T23:22:06.640Z,35.48
2018-12-05T23:24:35.753Z,32.17
2018-12-05T23:27:04.747Z,33.83
2018-12-05T23:29:33.758Z,30.97
2018-12-05T23:32:02.842Z,35.10
2018-12-05T23:34:31.945Z,30.68
2018-12-05T23:37:00.933Z,34.80
2018-12-05T23:39:30.069Z,34.63
2018-12-05T23:41:59.028Z,35.45
2018-12-05T23:44:44.172Z,37.13
2018-12-05T23:47:13.202Z,34.90
2018-12-05T23:49:42.216Z,33.83
2018-12-05T23:52:11.388Z,33.20
2018-12-05T23:54:40.380Z,30.35
2018-12-05T23:57:09.330Z,32.73
2018-12-05T23:59:38.362Z,34.53
